Weather at Swift Airport

Public forecast

Using degrees Fahrenheit for public forecast. Weather courtesy of forecast.io.

Closest aviation weather report (METAR) to Swift Airport

Report is more than 6 hours old.

Closest report is Windham Airport, 14.9 nm (27.6 km) SSE.

2022/11/14 14:52 (retrieved 2 years ago)

KIJD 141452Z AUTO 31010G16KT 10SM CLR 04/M08 A3026 RMK AO2 SLP248 T00391078 51019

Closest aviation forecast (TAF) to Swift Airport

Forecast is more than 12 hours old.

Closest forecast is Bradley International Airport, 15.9 nm (29.5 km) W.

2023/02/22 18:40 (retrieved 1 year ago)

TAF KBDL 221738Z 2218/2324 28005KT P6SM OVC100 FM222300 15003KT 5SM -SN BR OVC020 FM230300 10004KT 2SM -PL BR OVC003 FM230600 08005KT 4SM -RA BR OVC003 FM231200 03007KT 2SM -RA BR OVC003 FM231700 03007KT 5SM BR VCSH OVC010